createdAt,value
2018-07-26T00:01:58.852Z,21.56
2018-07-26T00:04:28.828Z,21.90
2018-07-26T00:06:58.858Z,21.22
2018-07-26T00:09:28.835Z,21.76
2018-07-26T00:11:58.602Z,21.98
2018-07-26T00:14:28.382Z,22.12
2018-07-26T00:16:58.212Z,22.18
2018-07-26T00:19:28.083Z,22.38
2018-07-26T00:21:57.922Z,21.91
2018-07-26T00:24:27.674Z,22.18
2018-07-26T00:26:57.614Z,22.41
2018-07-26T00:29:27.347Z,21.48
2018-07-26T00:31:57.310Z,21.57
2018-07-26T00:34:27.262Z,21.31
2018-07-26T00:36:57.069Z,21.75
2018-07-26T00:39:26.815Z,22.24
2018-07-26T00:41:56.534Z,22.50
2018-07-26T00:44:26.375Z,22.71
2018-07-26T00:46:56.288Z,22.81
2018-07-26T00:49:26.063Z,22.94
2018-07-26T00:51:55.995Z,22.87
2018-07-26T00:54:26.118Z,22.66
2018-07-26T00:56:56.015Z,22.51
2018-07-26T00:59:25.828Z,22.06
2018-07-26T01:01:55.656Z,22.08
2018-07-26T01:04:25.703Z,22.37
2018-07-26T01:06:55.605Z,21.66
2018-07-26T01:09:25.708Z,22.12
2018-07-26T01:11:55.621Z,22.46
2018-07-26T01:14:25.619Z,21.20
2018-07-26T01:16:55.576Z,20.57
2018-07-26T01:19:25.609Z,20.71
2018-07-26T01:21:55.962Z,20.98
2018-07-26T01:24:25.872Z,20.91
2018-07-26T01:26:55.935Z,21.45
2018-07-26T01:29:26.005Z,21.57
2018-07-26T01:31:56.047Z,21.12
2018-07-26T01:34:26.676Z,21.65
2018-07-26T01:36:56.677Z,22.05
2018-07-26T01:39:26.663Z,22.35
2018-07-26T01:41:56.702Z,21.62
2018-07-26T01:44:26.801Z,21.87
2018-07-26T01:46:56.845Z,21.51
2018-07-26T01:49:26.875Z,21.86
2018-07-26T01:51:56.720Z,22.23
2018-07-26T01:54:27.025Z,22.43
2018-07-26T01:56:56.984Z,22.69
2018-07-26T01:59:26.934Z,22.65
2018-07-26T02:01:57.326Z,22.40
2018-07-26T02:04:27.353Z,22.18
2018-07-26T02:06:57.339Z,22.51
2018-07-26T02:09:27.486Z,22.65
2018-07-26T02:11:57.592Z,22.55
2018-07-26T02:14:32.803Z,22.28
2018-07-26T02:17:03.080Z,22.43
2018-07-26T02:19:33.004Z,21.74
2018-07-26T02:22:03.001Z,21.71
2018-07-26T02:24:33.030Z,21.41
2018-07-26T02:27:03.052Z,21.16
2018-07-26T02:29:32.959Z,21.41
2018-07-26T02:32:02.919Z,21.75
2018-07-26T02:34:32.952Z,21.70
2018-07-26T02:37:02.865Z,20.71
2018-07-26T02:39:32.696Z,21.24
2018-07-26T02:42:02.579Z,21.67
2018-07-26T02:44:32.341Z,20.69
2018-07-26T02:47:02.250Z,20.95
2018-07-26T02:49:32.210Z,20.98
2018-07-26T02:52:02.319Z,21.20
2018-07-26T02:54:32.101Z,20.98
2018-07-26T02:57:02.122Z,21.58
2018-07-26T02:59:32.145Z,21.79
2018-07-26T03:02:02.520Z,21.05
2018-07-26T03:04:32.375Z,20.60
2018-07-26T03:07:02.704Z,21.03
2018-07-26T03:09:33.027Z,21.46
2018-07-26T03:12:02.938Z,21.77
2018-07-26T03:14:37.703Z,21.27
2018-07-26T03:17:07.584Z,21.27
2018-07-26T03:19:37.567Z,21.34
2018-07-26T03:22:07.727Z,21.74
2018-07-26T03:24:37.595Z,21.94
2018-07-26T03:27:08.660Z,21.91
2018-07-26T03:29:38.516Z,21.16
2018-07-26T03:32:09.867Z,20.63
2018-07-26T03:34:39.936Z,20.76
2018-07-26T03:37:10.053Z,21.05
2018-07-26T03:39:39.943Z,20.78
2018-07-26T03:42:09.935Z,20.92
2018-07-26T03:44:39.821Z,21.07
2018-07-26T03:47:10.025Z,21.18
2018-07-26T03:49:39.938Z,21.31
2018-07-26T03:52:09.920Z,20.73
2018-07-26T03:54:39.699Z,20.93
2018-07-26T03:57:09.846Z,20.96
2018-07-26T03:59:39.847Z,20.52
2018-07-26T04:02:10.068Z,20.93
2018-07-26T04:04:39.879Z,21.16
2018-07-26T04:07:09.819Z,21.31
2018-07-26T04:09:39.806Z,21.34
2018-07-26T04:12:09.977Z,21.41
2018-07-26T04:14:39.938Z,21.48
2018-07-26T04:17:10.087Z,21.52
2018-07-26T04:19:39.968Z,21.49
2018-07-26T04:22:09.888Z,21.52
2018-07-26T04:24:39.875Z,21.55
2018-07-26T04:27:09.984Z,21.57
2018-07-26T04:29:40.084Z,21.63
2018-07-26T04:32:10.214Z,21.62
2018-07-26T04:34:40.068Z,21.64
2018-07-26T04:37:09.907Z,21.56
2018-07-26T04:39:39.671Z,21.54
2018-07-26T04:42:09.587Z,21.44
2018-07-26T04:44:39.829Z,21.37
2018-07-26T04:47:09.900Z,21.37
2018-07-26T04:49:40.553Z,21.38
2018-07-26T04:52:10.404Z,21.37
2018-07-26T04:54:40.260Z,21.37
2018-07-26T04:57:10.187Z,21.24
2018-07-26T04:59:40.188Z,21.02
2018-07-26T05:02:10.303Z,21.14
2018-07-26T05:04:40.258Z,21.20
2018-07-26T05:07:10.428Z,21.14
2018-07-26T05:09:40.359Z,20.79
2018-07-26T05:12:10.418Z,20.98
2018-07-26T05:14:40.263Z,21.29
2018-07-26T05:17:10.438Z,21.51
2018-07-26T05:19:40.420Z,21.62
2018-07-26T05:22:10.387Z,21.19
2018-07-26T05:24:40.408Z,21.11
2018-07-26T05:27:10.500Z,21.16
2018-07-26T05:29:40.774Z,21.21
2018-07-26T05:32:10.704Z,20.85
2018-07-26T05:34:40.547Z,21.09
2018-07-26T05:37:10.484Z,21.17
2018-07-26T05:39:40.350Z,21.32
2018-07-26T05:42:10.132Z,21.15
2018-07-26T05:44:40.055Z,21.33
2018-07-26T05:47:10.092Z,21.72
2018-07-26T05:49:40.183Z,21.41
2018-07-26T05:52:10.368Z,21.10
2018-07-26T05:54:40.364Z,21.51
2018-07-26T05:57:10.259Z,21.94
2018-07-26T05:59:40.293Z,22.29
2018-07-26T06:02:10.924Z,22.22
2018-07-26T06:04:40.859Z,22.42
2018-07-26T06:07:10.730Z,22.07
2018-07-26T06:09:40.638Z,22.79
2018-07-26T06:12:11.124Z,22.91
2018-07-26T06:14:40.891Z,22.93
2018-07-26T06:17:10.885Z,22.93
2018-07-26T06:19:40.675Z,22.94
2018-07-26T06:22:10.496Z,22.81
2018-07-26T06:24:40.552Z,22.17
2018-07-26T06:27:10.651Z,22.70
2018-07-26T06:29:40.767Z,22.48
2018-07-26T06:32:10.814Z,21.88
2018-07-26T06:34:40.648Z,22.57
2018-07-26T06:37:10.598Z,22.84
2018-07-26T06:39:40.456Z,22.88
2018-07-26T06:42:10.738Z,23.04
2018-07-26T06:44:40.772Z,23.05
2018-07-26T06:47:11.391Z,23.18
2018-07-26T06:49:41.170Z,23.30
2018-07-26T06:52:11.195Z,22.67
2018-07-26T06:54:41.211Z,23.06
2018-07-26T06:57:11.167Z,23.13
2018-07-26T06:59:40.995Z,23.29
2018-07-26T07:02:10.966Z,23.50
2018-07-26T07:04:41.056Z,23.47
2018-07-26T07:07:10.985Z,23.64
2018-07-26T07:09:40.840Z,23.76
2018-07-26T07:12:10.891Z,23.85
2018-07-26T07:14:40.996Z,23.60
2018-07-26T07:17:11.237Z,23.68
2018-07-26T07:19:41.356Z,23.84
2018-07-26T07:22:11.292Z,23.71
2018-07-26T07:24:41.135Z,23.60
2018-07-26T07:27:11.017Z,23.86
2018-07-26T07:29:40.860Z,24.22
2018-07-26T07:32:10.655Z,23.79
2018-07-26T07:34:40.791Z,24.03
2018-07-26T07:37:10.692Z,24.10
2018-07-26T07:39:40.540Z,23.90
2018-07-26T07:42:10.573Z,24.11
2018-07-26T07:44:40.559Z,24.18
2018-07-26T07:47:13.444Z,24.40
2018-07-26T07:49:43.423Z,24.23
2018-07-26T07:52:19.815Z,24.53
2018-07-26T07:54:49.659Z,23.97
2018-07-26T07:57:19.536Z,23.71
2018-07-26T07:59:49.367Z,24.06
2018-07-26T08:02:19.215Z,24.47
2018-07-26T08:04:49.129Z,24.34
2018-07-26T08:07:19.047Z,24.50
2018-07-26T08:09:48.914Z,24.63
2018-07-26T08:12:18.726Z,24.04
2018-07-26T08:14:48.890Z,23.89
2018-07-26T08:17:18.771Z,23.97
2018-07-26T08:19:49.492Z,24.36
2018-07-26T08:22:19.519Z,24.24
2018-07-26T08:24:49.915Z,24.50
2018-07-26T08:27:19.835Z,24.75
2018-07-26T08:29:49.957Z,24.96
2018-07-26T08:32:19.783Z,25.08
2018-07-26T08:34:49.676Z,24.49
2018-07-26T08:37:19.567Z,24.77
2018-07-26T08:39:49.712Z,25.01
2018-07-26T08:42:19.615Z,25.16
2018-07-26T08:44:49.448Z,25.26
2018-07-26T08:47:19.414Z,25.38
2018-07-26T08:49:49.496Z,25.47
2018-07-26T08:52:19.490Z,25.41
2018-07-26T08:54:49.344Z,25.32
2018-07-26T08:57:19.188Z,25.36
2018-07-26T08:59:49.131Z,25.18
2018-07-26T09:02:19.048Z,25.15
2018-07-26T09:04:49.213Z,25.12
2018-07-26T09:07:19.257Z,25.02
2018-07-26T09:09:49.047Z,25.17
2018-07-26T09:12:18.970Z,24.83
2018-07-26T09:14:48.880Z,24.91
2018-07-26T09:17:18.935Z,24.74
2018-07-26T09:19:48.863Z,25.01
2018-07-26T09:22:18.697Z,25.26
2018-07-26T09:24:48.524Z,25.30
2018-07-26T09:27:18.384Z,25.48
2018-07-26T09:29:48.266Z,25.69
2018-07-26T09:32:18.099Z,25.85
2018-07-26T09:34:47.982Z,25.73
2018-07-26T09:37:18.006Z,25.70
2018-07-26T09:39:47.837Z,25.89
2018-07-26T09:42:17.962Z,26.04
2018-07-26T09:44:47.780Z,26.08
2018-07-26T09:47:18.043Z,26.12
2018-07-26T09:49:48.110Z,26.16
2018-07-26T09:52:17.971Z,25.96
2018-07-26T09:54:47.823Z,25.73
2018-07-26T09:57:17.780Z,25.93
2018-07-26T09:59:47.720Z,26.11
2018-07-26T10:02:17.700Z,26.06
2018-07-26T10:04:47.618Z,25.78
2018-07-26T10:07:17.524Z,25.90
2018-07-26T10:09:47.456Z,26.14
2018-07-26T10:12:17.480Z,25.98
2018-07-26T10:14:47.370Z,25.86
2018-07-26T10:17:17.262Z,26.02
2018-07-26T10:19:47.353Z,26.07
2018-07-26T10:22:17.291Z,25.99
2018-07-26T10:24:47.190Z,26.04
2018-07-26T10:27:17.071Z,25.88
2018-07-26T10:29:46.962Z,26.01
2018-07-26T10:32:17.724Z,26.16
2018-07-26T10:34:47.956Z,26.20
2018-07-26T10:37:17.929Z,26.36
2018-07-26T10:39:47.755Z,26.32
2018-07-26T10:42:17.579Z,26.42
2018-07-26T10:44:47.435Z,26.61
2018-07-26T10:47:17.211Z,26.75
2018-07-26T10:49:47.176Z,26.65
2018-07-26T10:52:17.248Z,26.55
2018-07-26T10:54:47.334Z,26.48
2018-07-26T10:57:17.276Z,26.50
2018-07-26T10:59:47.256Z,26.31
2018-07-26T11:02:17.164Z,25.96
2018-07-26T11:04:47.081Z,26.15
2018-07-26T11:07:16.987Z,26.04
2018-07-26T11:09:46.817Z,25.87
2018-07-26T11:12:16.857Z,25.68
2018-07-26T11:14:46.820Z,25.79
2018-07-26T11:17:16.401Z,25.84
2018-07-26T11:19:46.392Z,25.81
2018-07-26T11:22:16.567Z,25.75
2018-07-26T11:25:01.039Z,25.85
2018-07-26T11:27:31.023Z,25.81
2018-07-26T11:30:01.016Z,25.78
2018-07-26T11:32:30.916Z,25.90
2018-07-26T11:35:01.009Z,25.83
2018-07-26T11:37:31.023Z,25.70
2018-07-26T11:40:01.060Z,25.83
2018-07-26T11:42:31.352Z,25.90
2018-07-26T11:45:01.429Z,25.59
2018-07-26T11:47:31.322Z,26.01
2018-07-26T11:50:01.280Z,26.11
2018-07-26T11:52:31.192Z,26.22
2018-07-26T11:55:01.240Z,25.89
2018-07-26T11:57:31.268Z,26.18
2018-07-26T12:00:01.348Z,26.15
2018-07-26T12:02:31.327Z,25.86
2018-07-26T12:05:01.329Z,26.18
2018-07-26T12:07:31.258Z,26.23
2018-07-26T12:10:01.268Z,26.27
2018-07-26T12:12:31.272Z,26.38
2018-07-26T12:15:01.392Z,26.31
2018-07-26T12:17:31.454Z,26.14
2018-07-26T12:20:01.303Z,25.90
2018-07-26T12:22:31.166Z,25.91
2018-07-26T12:25:01.067Z,25.86
2018-07-26T12:27:30.882Z,25.86
2018-07-26T12:30:00.796Z,26.05
2018-07-26T12:32:30.626Z,26.04
2018-07-26T12:35:00.680Z,25.59
2018-07-26T12:37:30.585Z,25.73
2018-07-26T12:40:00.470Z,25.68
2018-07-26T12:42:30.612Z,25.72
2018-07-26T12:45:06.905Z,25.53
2018-07-26T12:47:37.019Z,25.54
2018-07-26T12:50:06.940Z,25.29
2018-07-26T12:52:36.839Z,25.24
2018-07-26T12:55:06.992Z,25.31
2018-07-26T12:57:37.120Z,25.46
2018-07-26T13:00:08.224Z,25.30
2018-07-26T13:02:38.384Z,25.41
2018-07-26T13:05:08.831Z,25.41
2018-07-26T13:07:39.119Z,25.57
2018-07-26T13:10:09.234Z,25.63
2018-07-26T13:12:39.344Z,25.61
2018-07-26T13:15:09.427Z,25.56
2018-07-26T13:17:39.409Z,25.66
2018-07-26T13:20:09.999Z,25.83
2018-07-26T13:22:39.986Z,25.95
2018-07-26T13:25:10.352Z,26.07
2018-07-26T13:27:40.515Z,26.14
2018-07-26T13:30:10.525Z,26.28
2018-07-26T13:32:40.853Z,26.38
2018-07-26T13:35:10.758Z,26.48
2018-07-26T13:37:40.783Z,26.52
2018-07-26T13:40:10.620Z,26.27
2018-07-26T13:42:40.545Z,26.45
2018-07-26T13:45:11.127Z,26.45
2018-07-26T13:47:41.200Z,26.31
2018-07-26T13:50:11.075Z,26.33
2018-07-26T13:52:41.615Z,26.24
2018-07-26T13:55:11.664Z,26.41
2018-07-26T13:57:41.765Z,26.58
2018-07-26T14:00:13.377Z,26.63
2018-07-26T14:02:43.809Z,26.58
2018-07-26T14:05:13.786Z,26.61
2018-07-26T14:07:43.982Z,26.64
2018-07-26T14:10:13.908Z,26.62
2018-07-26T14:12:44.146Z,26.62
2018-07-26T14:15:14.157Z,26.68
2018-07-26T14:17:44.088Z,26.51
2018-07-26T14:20:14.067Z,26.59
2018-07-26T14:22:44.001Z,26.23
2018-07-26T14:25:13.885Z,26.36
2018-07-26T14:27:43.778Z,26.30
2018-07-26T14:30:13.766Z,26.13
2018-07-26T14:32:43.776Z,26.10
2018-07-26T14:35:13.972Z,26.08
2018-07-26T14:37:43.943Z,25.80
2018-07-26T14:40:13.951Z,25.99
2018-07-26T14:42:43.965Z,26.20
2018-07-26T14:45:14.040Z,26.38
2018-07-26T14:47:44.037Z,26.38
2018-07-26T14:50:14.113Z,26.39
2018-07-26T14:52:44.051Z,26.48
2018-07-26T14:55:14.000Z,26.54
2018-07-26T14:57:43.992Z,26.61
2018-07-26T15:00:13.984Z,26.66
2018-07-26T15:02:44.001Z,26.69
2018-07-26T15:05:14.056Z,26.47
2018-07-26T15:07:44.242Z,26.60
2018-07-26T15:10:14.434Z,26.67
2018-07-26T15:12:44.579Z,26.71
2018-07-26T15:15:14.580Z,26.60
2018-07-26T15:17:44.440Z,26.58
2018-07-26T15:20:15.090Z,26.61
2018-07-26T15:22:44.999Z,25.59
2018-07-26T15:25:19.222Z,25.99
2018-07-26T15:27:49.248Z,26.12
2018-07-26T15:30:19.183Z,26.33
2018-07-26T15:32:49.070Z,25.47
2018-07-26T15:35:19.023Z,25.14
2018-07-26T15:37:49.683Z,25.17
2018-07-26T15:40:20.043Z,25.40
2018-07-26T15:42:50.150Z,25.38
2018-07-26T15:45:19.957Z,25.44
2018-07-26T15:47:49.773Z,25.58
2018-07-26T15:50:20.257Z,24.76
2018-07-26T15:52:50.685Z,25.06
2018-07-26T15:55:21.582Z,24.96
2018-07-26T15:57:51.481Z,24.96
2018-07-26T16:00:21.327Z,25.39
2018-07-26T16:02:51.115Z,25.20
2018-07-26T16:05:20.917Z,25.31
2018-07-26T16:07:50.821Z,25.11
2018-07-26T16:10:20.703Z,25.33
2018-07-26T16:12:50.537Z,24.74
2018-07-26T16:15:20.507Z,24.64
2018-07-26T16:17:50.455Z,25.03
2018-07-26T16:20:20.367Z,25.26
2018-07-26T16:22:50.274Z,25.26
2018-07-26T16:25:23.694Z,24.85
2018-07-26T16:27:54.394Z,24.77
2018-07-26T16:30:24.183Z,24.85
2018-07-26T16:32:54.035Z,25.22
2018-07-26T16:35:24.027Z,25.28
2018-07-26T16:37:53.825Z,25.50
2018-07-26T16:40:23.757Z,25.66
2018-07-26T16:42:53.555Z,25.79
2018-07-26T16:45:23.419Z,25.79
2018-07-26T16:47:53.216Z,25.43
2018-07-26T16:50:23.215Z,25.10
2018-07-26T16:52:53.188Z,25.51
2018-07-26T16:55:23.266Z,24.53
2018-07-26T16:57:53.480Z,25.08
2018-07-26T17:00:23.363Z,24.60
2018-07-26T17:02:53.242Z,24.82
2018-07-26T17:05:23.156Z,24.88
2018-07-26T17:07:52.940Z,25.17
2018-07-26T17:10:23.069Z,24.63
2018-07-26T17:12:53.472Z,25.15
2018-07-26T17:15:23.745Z,25.40
2018-07-26T17:17:53.715Z,25.41
2018-07-26T17:20:23.647Z,25.57
2018-07-26T17:22:54.622Z,25.81
2018-07-26T17:25:26.240Z,25.53
2018-07-26T17:27:56.831Z,25.35
2018-07-26T17:30:26.647Z,25.13
2018-07-26T17:32:56.615Z,25.30
2018-07-26T17:35:26.696Z,25.52
2018-07-26T17:37:56.695Z,25.22
2018-07-26T17:40:26.736Z,24.92
2018-07-26T17:42:56.583Z,25.16
2018-07-26T17:45:26.403Z,25.19
2018-07-26T17:47:56.467Z,24.75
2018-07-26T17:50:26.426Z,24.78
2018-07-26T17:52:56.255Z,24.64
2018-07-26T17:55:26.159Z,25.00
2018-07-26T17:57:56.175Z,25.26
2018-07-26T18:00:25.996Z,25.44
2018-07-26T18:02:55.836Z,25.44
2018-07-26T18:05:25.804Z,25.73
2018-07-26T18:07:55.662Z,25.84
2018-07-26T18:10:25.467Z,25.73
2018-07-26T18:12:55.587Z,25.89
2018-07-26T18:15:25.563Z,25.94
2018-07-26T18:17:55.584Z,25.97
2018-07-26T18:20:25.630Z,25.98
2018-07-26T18:22:55.587Z,26.00
2018-07-26T18:25:25.457Z,26.00
2018-07-26T18:27:55.448Z,25.96
2018-07-26T18:30:25.513Z,25.95
2018-07-26T18:32:55.391Z,25.73
2018-07-26T18:35:25.338Z,25.69
2018-07-26T18:37:55.474Z,25.74
2018-07-26T18:40:25.441Z,25.79
2018-07-26T18:42:55.479Z,25.71
2018-07-26T18:45:25.557Z,25.82
2018-07-26T18:47:55.763Z,25.86
2018-07-26T18:50:25.736Z,25.82
2018-07-26T18:52:55.844Z,25.83
2018-07-26T18:55:25.808Z,25.89
2018-07-26T18:57:55.693Z,25.84
2018-07-26T19:00:25.732Z,25.90
2018-07-26T19:02:55.613Z,25.85
2018-07-26T19:05:25.686Z,25.85
2018-07-26T19:07:55.765Z,25.74
2018-07-26T19:10:25.643Z,25.41
2018-07-26T19:12:55.512Z,25.06
2018-07-26T19:15:25.396Z,24.89
2018-07-26T19:17:55.509Z,25.20
2018-07-26T19:20:25.340Z,25.27
2018-07-26T19:22:55.262Z,25.07
2018-07-26T19:25:25.263Z,25.06
2018-07-26T19:27:55.410Z,24.54
2018-07-26T19:30:25.587Z,24.03
2018-07-26T19:32:55.421Z,24.58
2018-07-26T19:35:31.662Z,24.80
2018-07-26T19:38:01.701Z,24.92
2018-07-26T19:40:32.034Z,25.04
2018-07-26T19:43:01.863Z,24.91
2018-07-26T19:45:31.848Z,24.66
2018-07-26T19:48:01.788Z,24.60
2018-07-26T19:50:31.670Z,24.65
2018-07-26T19:53:01.565Z,24.57
2018-07-26T19:55:31.563Z,24.44
2018-07-26T19:58:01.793Z,24.37
2018-07-26T20:00:31.920Z,24.33
2018-07-26T20:03:01.969Z,24.29
2018-07-26T20:05:31.767Z,24.21
2018-07-26T20:08:01.792Z,24.19
2018-07-26T20:10:31.743Z,24.16
2018-07-26T20:13:01.877Z,24.33
2018-07-26T20:15:31.960Z,24.50
2018-07-26T20:18:01.919Z,24.61
2018-07-26T20:20:31.935Z,24.66
2018-07-26T20:23:01.872Z,24.79
2018-07-26T20:25:31.685Z,24.90
2018-07-26T20:28:01.809Z,24.95
2018-07-26T20:30:31.659Z,24.10
2018-07-26T20:33:01.593Z,23.42
2018-07-26T20:35:31.505Z,23.68
2018-07-26T20:38:01.375Z,24.06
2018-07-26T20:40:31.236Z,24.37
2018-07-26T20:43:01.086Z,24.22
2018-07-26T20:45:30.859Z,24.22
2018-07-26T20:48:00.874Z,24.11
2018-07-26T20:50:30.722Z,24.23
2018-07-26T20:53:00.564Z,24.54
2018-07-26T20:55:30.403Z,24.68
2018-07-26T20:58:00.183Z,24.74
2018-07-26T21:00:29.967Z,24.81
2018-07-26T21:02:59.767Z,24.86
2018-07-26T21:05:29.516Z,24.86
2018-07-26T21:07:59.291Z,24.91
2018-07-26T21:10:29.117Z,24.94
2018-07-26T21:12:58.990Z,25.03
2018-07-26T21:15:28.832Z,25.03
2018-07-26T21:17:58.734Z,24.98
2018-07-26T21:20:28.551Z,25.03
2018-07-26T21:22:58.408Z,25.04
2018-07-26T21:25:28.175Z,25.06
2018-07-26T21:27:57.959Z,25.04
2018-07-26T21:30:27.762Z,25.03
2018-07-26T21:32:57.543Z,24.17
2018-07-26T21:35:27.307Z,24.50
2018-07-26T21:37:57.628Z,24.71
2018-07-26T21:40:27.545Z,24.78
2018-07-26T21:43:00.456Z,24.78
2018-07-26T21:45:36.787Z,24.79
2018-07-26T21:48:06.883Z,24.66
2018-07-26T21:50:36.895Z,24.51
2018-07-26T21:53:07.637Z,24.40
2018-07-26T21:55:37.782Z,24.38
2018-07-26T21:58:07.719Z,24.37
2018-07-26T22:00:42.652Z,24.34
2018-07-26T22:03:13.198Z,24.23
2018-07-26T22:05:43.018Z,24.14
2018-07-26T22:08:12.835Z,24.08
2018-07-26T22:10:42.770Z,24.08
2018-07-26T22:13:12.770Z,24.07
2018-07-26T22:15:42.743Z,23.99
2018-07-26T22:18:12.585Z,23.88
2018-07-26T22:20:42.504Z,23.81
2018-07-26T22:23:12.385Z,23.78
2018-07-26T22:25:46.473Z,23.68
2018-07-26T22:28:16.802Z,23.53
2018-07-26T22:30:47.381Z,23.44
2018-07-26T22:33:17.443Z,23.36
2018-07-26T22:35:47.316Z,23.22
2018-07-26T22:38:17.556Z,23.36
2018-07-26T22:40:47.727Z,23.56
2018-07-26T22:43:17.612Z,23.57
2018-07-26T22:45:47.767Z,23.55
2018-07-26T22:48:17.878Z,23.55
2018-07-26T22:50:47.895Z,23.60
2018-07-26T22:53:17.872Z,23.64
2018-07-26T22:55:48.128Z,23.65
2018-07-26T22:58:18.121Z,23.66
2018-07-26T23:00:48.092Z,23.62
2018-07-26T23:03:17.971Z,23.61
2018-07-26T23:05:47.876Z,23.61
2018-07-26T23:08:17.901Z,23.60
2018-07-26T23:10:47.923Z,23.54
2018-07-26T23:13:17.817Z,23.53
2018-07-26T23:15:47.785Z,23.53
2018-07-26T23:18:17.725Z,23.56
2018-07-26T23:20:47.648Z,23.53
2018-07-26T23:23:17.631Z,23.51
2018-07-26T23:25:47.882Z,23.49
2018-07-26T23:28:18.502Z,23.52
2018-07-26T23:30:48.612Z,23.59
2018-07-26T23:33:18.482Z,23.62
2018-07-26T23:35:48.436Z,23.66
2018-07-26T23:38:18.362Z,23.65
2018-07-26T23:40:48.242Z,23.63
2018-07-26T23:43:18.167Z,23.60
2018-07-26T23:45:48.046Z,23.57
2018-07-26T23:48:18.296Z,23.52
2018-07-26T23:50:48.174Z,23.54
2018-07-26T23:53:18.100Z,23.57
2018-07-26T23:55:48.115Z,23.53
2018-07-26T23:58:18.143Z,23.49
